• Join FlightAware (Why Join?)
  • Login
  • US Flag 
07:26PM EST


 

Airport Tracker/Info


-or-


 

Live Flight TrackerFlight Track Log ✈ FSR411 ✈ 09-May-2014 ✈ KCMI - KSTL

Flight Track Log - Related Links

Times and Time Zones

All times are in EDT time to prevent confusion due to time zone crossing. See the FSR411 flight status page for this flight to view local times or setup timezone preferences in your user account.

Time Position Orientation Groundspeed Altitude Reporting Facility
EDT Latitude Longitude Course Direction KTS MPH feet Rate Location/Type
02:12PM 39.9908 -88.3275 208° Southwest 182 209 12,000  Level Kansas City Center
02:13PM 39.9486 -88.3683 217° Southwest 193 222 6,700 -1,680 Descending Kansas City Center
02:14PM 39.8958 -88.4144 214° Southwest 213 245 8,700 1,380 Climbing Chicago Center
02:15PM 39.8467 -88.4606 216° Southwest 215 247 9,600 900 Climbing Kansas City Center
02:16PM 39.7961 -88.5306 227° Southwest 245 282 10,600 660 Climbing Kansas City Center
02:17PM 39.9709 -88.3243 208° Southwest  Level FlightAware Approximate
02:17PM 39.7431 -88.6011 226° Southwest 266 306 11,000  Level Kansas City Center
02:18PM 39.6808 -88.6856 226° Southwest 307 353 11,000  Level Kansas City Center
02:19PM 39.6186 -88.7706 226° Southwest 320 368 11,000  Level Kansas City Center
02:20PM 39.5431 -88.8706 226° Southwest 320 368 11,000  Level Kansas City Center
02:21PM 39.4806 -88.9539 226° Southwest 320 368 11,000  Level Kansas City Center
02:22PM 39.4150 -89.0419 226° Southwest 320 368 11,000  Level Kansas City Center
02:23PM 39.3517 -89.1250 225° Southwest 321 369 11,000  Level Kansas City Center
02:24PM 39.2889 -89.2086 226° Southwest 322 371 11,000  Level Kansas City Center
02:25PM 39.2258 -89.2931 226° Southwest 322 371 11,000  Level Kansas City Center
02:26PM 39.1492 -89.3925 225° Southwest 324 373 11,000  Level Kansas City Center
02:27PM 39.0861 -89.4753 226° Southwest 324 373 11,000  Level Kansas City Center
02:28PM 39.0233 -89.5572 225° Southwest 324 373 11,000 -300 Level Kansas City Center
02:30PM 38.9592 -89.6464 227° Southwest 316 364 10,500 -840 Descending Kansas City Center
02:31PM 38.9119 -89.7078 225° Southwest 267 307 9,300 -1,260 Descending Kansas City Center
02:32PM 38.8611 -89.7719 225° Southwest 260 299 7,900 -1,140 Descending Kansas City Center
02:33PM 38.8133 -89.8361 226° Southwest 251 289 7,000 -480 Descending Kansas City Center
02:34PM 38.7550 -89.9161 227° Southwest 255 293 7,000 -300 Level Kansas City Center
02:35PM 38.7131 -89.9731 227° Southwest 218 251 6,400 -1,020 Descending Kansas City Center
02:36PM 38.6758 -90.0239 227° Southwest 197 227 5,000 -1,020 Descending Kansas City Center
02:37PM 38.6444 -90.0700 229° Southwest 174 200 4,300 -720 Descending Kansas City Center
02:38PM 38.6467 -90.1344 273° West 182 209 3,500 -480 Descending Kansas City Center
02:39PM 38.6625 -90.1856 292° West 157 181 3,400 -540 Descending Kansas City Center
02:40PM 38.6869 -90.2361 302° West 141 162 2,500 -780 Descending Kansas City Center
02:41PM 38.7067 -90.2747 303° West 134 154 1,800 -720 Descending Kansas City Center
02:42PM 38.7256 -90.3131 302° West 131 151 1,100 -600 Descending Kansas City Center
02:43PM 38.7461 -90.3542 303° West 131 151 600 -540 Descending Kansas City Center